createdAt,value
2023-11-26T00:01:31.372Z,2.70
2023-11-26T00:03:58.523Z,3.00
2023-11-26T00:06:25.857Z,2.13
2023-11-26T00:08:52.548Z,4.43
2023-11-26T00:11:19.243Z,2.65
2023-11-26T00:13:45.914Z,3.38
2023-11-26T00:16:14.984Z,3.33
2023-11-26T00:18:41.640Z,4.45
2023-11-26T00:21:08.317Z,5.70
2023-11-26T00:23:35.027Z,5.75
2023-11-26T00:26:01.755Z,10.43
2023-11-26T00:28:28.439Z,8.27
2023-11-26T00:30:55.119Z,6.13
2023-11-26T00:33:23.192Z,3.97
2023-11-26T00:35:49.858Z,5.07
2023-11-26T00:38:16.498Z,2.65
2023-11-26T00:40:43.495Z,2.08
2023-11-26T00:43:10.859Z,1.80
2023-11-26T00:45:38.617Z,1.70
2023-11-26T00:48:06.078Z,2.58
2023-11-26T00:50:34.117Z,3.25
2023-11-26T00:53:00.880Z,3.03
2023-11-26T00:55:27.578Z,2.25
2023-11-26T00:57:54.201Z,1.87
2023-11-26T01:00:21.162Z,2.08
2023-11-26T01:02:48.750Z,2.80
2023-11-26T01:05:15.595Z,2.50
2023-11-26T01:07:43.653Z,2.50
2023-11-26T01:10:10.886Z,2.23
2023-11-26T01:12:37.482Z,3.25
2023-11-26T01:15:04.865Z,2.63
2023-11-26T01:17:31.628Z,2.45
2023-11-26T01:19:58.387Z,1.85
2023-11-26T01:22:25.063Z,2.00
2023-11-26T01:24:53.198Z,2.08
2023-11-26T01:27:19.890Z,2.17
2023-11-26T01:29:46.564Z,3.50
2023-11-26T01:32:13.385Z,5.40
2023-11-26T01:34:40.249Z,2.37
2023-11-26T01:37:06.877Z,3.72
2023-11-26T01:39:33.511Z,2.72
2023-11-26T01:42:01.725Z,3.25
2023-11-26T01:44:28.461Z,2.28
2023-11-26T01:46:57.232Z,1.77
2023-11-26T01:49:25.188Z,2.88
2023-11-26T01:51:51.924Z,2.22
2023-11-26T01:54:18.554Z,1.58
2023-11-26T01:56:45.196Z,1.92
2023-11-26T01:59:13.200Z,4.20
2023-11-26T02:01:41.825Z,1.60
2023-11-26T02:04:08.487Z,3.53
2023-11-26T02:06:35.205Z,2.95
2023-11-26T02:09:02.612Z,3.55
2023-11-26T02:11:29.314Z,1.67
2023-11-26T02:13:56.076Z,2.97
2023-11-26T02:16:24.483Z,2.15
2023-11-26T02:18:51.191Z,1.77
2023-11-26T02:21:17.903Z,3.22
2023-11-26T02:23:46.690Z,2.20
2023-11-26T02:26:14.882Z,2.15
2023-11-26T02:28:43.255Z,2.67
2023-11-26T02:31:10.034Z,2.47
2023-11-26T02:33:53.829Z,1.77
2023-11-26T02:36:22.718Z,2.37
2023-11-26T02:38:49.332Z,1.85
2023-11-26T02:41:17.402Z,4.35
2023-11-26T02:43:44.043Z,3.78
2023-11-26T02:46:10.766Z,2.60
2023-11-26T02:48:37.428Z,4.50
2023-11-26T02:51:04.276Z,1.58
2023-11-26T02:53:30.913Z,3.15
2023-11-26T02:55:57.569Z,6.45
2023-11-26T02:58:25.689Z,4.20
2023-11-26T03:00:52.361Z,5.13
2023-11-26T03:03:18.990Z,3.35
2023-11-26T03:05:45.666Z,3.95
2023-11-26T03:08:12.346Z,2.80
2023-11-26T03:10:39.377Z,3.25
2023-11-26T03:13:06.003Z,3.17
2023-11-26T03:15:34.590Z,2.80
2023-11-26T03:18:01.278Z,3.33
2023-11-26T03:20:27.972Z,3.65
2023-11-26T03:22:54.666Z,3.80
2023-11-26T03:25:21.370Z,2.93
2023-11-26T03:27:47.971Z,4.30
2023-11-26T03:30:14.784Z,2.38
2023-11-26T03:32:42.888Z,4.60
2023-11-26T03:35:09.717Z,5.13
2023-11-26T03:37:36.424Z,6.93
2023-11-26T03:40:03.410Z,2.45
2023-11-26T03:42:30.044Z,3.28
2023-11-26T03:44:56.950Z,3.17
2023-11-26T03:47:23.793Z,3.58
2023-11-26T03:49:51.876Z,3.83
2023-11-26T03:52:18.543Z,2.72
2023-11-26T03:54:45.293Z,3.08
2023-11-26T03:57:12.064Z,3.88
2023-11-26T03:59:42.901Z,2.25
2023-11-26T04:02:09.704Z,4.93
2023-11-26T04:04:36.385Z,4.13
2023-11-26T04:07:04.837Z,3.15
2023-11-26T04:09:31.467Z,2.13
2023-11-26T04:11:58.442Z,2.90
2023-11-26T04:14:28.668Z,2.93
2023-11-26T04:16:55.498Z,3.63
2023-11-26T04:19:22.254Z,3.75
2023-11-26T04:21:48.905Z,6.05
2023-11-26T04:24:17.236Z,2.63
2023-11-26T04:26:46.513Z,2.97
2023-11-26T04:29:13.929Z,2.33
2023-11-26T04:31:40.669Z,3.63
2023-11-26T04:34:07.294Z,4.18
2023-11-26T04:36:33.911Z,4.40
2023-11-26T04:39:00.588Z,3.47
2023-11-26T04:41:28.687Z,4.35
2023-11-26T04:43:55.440Z,4.22
2023-11-26T04:46:22.131Z,3.63
2023-11-26T04:48:48.748Z,5.43
2023-11-26T04:51:15.378Z,3.20
2023-11-26T04:53:41.993Z,4.30
2023-11-26T04:56:08.734Z,4.25
2023-11-26T04:58:36.749Z,4.07
2023-11-26T05:01:03.450Z,4.95
2023-11-26T05:03:30.223Z,6.83
2023-11-26T05:05:56.914Z,6.72
2023-11-26T05:08:23.580Z,8.10
2023-11-26T05:10:50.300Z,5.22
2023-11-26T05:13:16.944Z,5.38
2023-11-26T05:15:45.010Z,4.87
2023-11-26T05:18:11.763Z,6.45
2023-11-26T05:20:38.497Z,6.07
2023-11-26T05:23:05.221Z,6.07
2023-11-26T05:25:31.938Z,5.88
2023-11-26T05:27:58.592Z,4.40
2023-11-26T05:30:26.612Z,5.35
2023-11-26T05:32:54.669Z,3.83
2023-11-26T05:35:21.522Z,3.63
2023-11-26T05:37:48.177Z,4.68
2023-11-26T05:40:14.909Z,3.57
2023-11-26T05:42:41.735Z,4.13
2023-11-26T05:45:09.284Z,2.88
2023-11-26T05:47:36.236Z,4.05
2023-11-26T05:50:05.043Z,3.28
2023-11-26T05:52:31.649Z,6.17
2023-11-26T05:54:58.479Z,5.93
2023-11-26T05:57:25.120Z,6.38
2023-11-26T05:59:51.816Z,4.80
2023-11-26T06:02:18.796Z,7.20
2023-11-26T06:04:45.539Z,4.63
2023-11-26T06:07:13.795Z,6.78
2023-11-26T06:09:41.119Z,5.00
2023-11-26T06:12:07.954Z,7.75
2023-11-26T06:14:34.660Z,4.72
2023-11-26T06:17:01.539Z,5.00
2023-11-26T06:19:28.335Z,4.93
2023-11-26T06:21:55.149Z,4.20
2023-11-26T06:24:24.003Z,5.38
2023-11-26T06:26:53.435Z,6.13
2023-11-26T06:29:20.049Z,4.53
2023-11-26T06:31:46.790Z,7.13
2023-11-26T06:34:13.434Z,5.75
2023-11-26T06:36:40.077Z,7.15
2023-11-26T06:39:06.806Z,7.22
2023-11-26T06:41:34.833Z,7.13
2023-11-26T06:44:01.855Z,8.35
2023-11-26T06:46:29.383Z,12.20
2023-11-26T06:48:56.436Z,12.48
2023-11-26T06:51:23.393Z,11.02
2023-11-26T06:53:51.193Z,8.97
2023-11-26T06:56:18.308Z,9.40
2023-11-26T06:58:46.784Z,7.63
2023-11-26T07:01:14.601Z,9.27
2023-11-26T07:03:41.646Z,8.55
2023-11-26T07:06:10.404Z,6.33
2023-11-26T07:08:38.038Z,6.50
2023-11-26T07:11:05.051Z,8.07
2023-11-26T07:13:31.771Z,5.57
2023-11-26T07:15:59.890Z,6.63
2023-11-26T07:18:26.766Z,6.03
2023-11-26T07:20:53.496Z,6.47
2023-11-26T07:23:20.222Z,7.43
2023-11-26T07:25:46.863Z,6.95
2023-11-26T07:28:13.585Z,7.85
2023-11-26T07:30:40.377Z,7.40
2023-11-26T07:33:08.546Z,6.00
2023-11-26T07:35:35.337Z,6.65
2023-11-26T07:38:02.443Z,7.00
2023-11-26T07:40:29.163Z,6.35
2023-11-26T07:42:55.847Z,6.13
2023-11-26T07:45:22.664Z,6.25
2023-11-26T07:47:49.469Z,6.05
2023-11-26T07:50:17.617Z,6.90
2023-11-26T07:52:44.281Z,7.85
2023-11-26T07:55:10.992Z,8.13
2023-11-26T07:57:37.812Z,6.65
2023-11-26T08:00:05.543Z,7.10
2023-11-26T08:02:32.160Z,6.00
2023-11-26T08:04:58.842Z,5.88
2023-11-26T08:07:26.874Z,7.07
2023-11-26T08:09:54.466Z,8.52
2023-11-26T08:12:21.685Z,9.02
2023-11-26T08:14:48.548Z,11.63
2023-11-26T08:17:15.206Z,8.45
2023-11-26T08:19:41.879Z,14.03
2023-11-26T08:22:09.066Z,10.95
2023-11-26T08:24:37.761Z,11.30
2023-11-26T08:27:04.984Z,12.02
2023-11-26T08:29:31.632Z,9.18
2023-11-26T08:31:58.322Z,9.07
2023-11-26T08:34:25.122Z,9.48
2023-11-26T08:36:51.818Z,7.70
2023-11-26T08:39:18.599Z,8.45
2023-11-26T08:41:46.666Z,9.18
2023-11-26T08:44:13.268Z,7.83
2023-11-26T08:46:39.943Z,8.80
2023-11-26T08:49:06.634Z,9.15
2023-11-26T08:51:33.322Z,7.65
2023-11-26T08:54:00.184Z,8.18
2023-11-26T08:56:27.700Z,8.53
2023-11-26T08:58:55.779Z,6.57
2023-11-26T09:01:22.541Z,7.75
2023-11-26T09:03:49.349Z,8.18
2023-11-26T09:06:16.072Z,6.78
2023-11-26T09:08:42.704Z,7.00
2023-11-26T09:11:10.717Z,8.27
2023-11-26T09:13:37.374Z,7.97
2023-11-26T09:16:05.881Z,6.03
2023-11-26T09:18:32.568Z,7.75
2023-11-26T09:20:59.320Z,9.03
2023-11-26T09:23:26.038Z,7.22
2023-11-26T09:25:52.668Z,6.85
2023-11-26T09:28:19.417Z,9.23
2023-11-26T09:30:46.212Z,7.82
2023-11-26T09:33:14.541Z,7.80
2023-11-26T09:35:41.400Z,8.20
2023-11-26T09:38:08.531Z,7.35
2023-11-26T09:40:40.984Z,8.95
2023-11-26T09:43:08.274Z,6.28
2023-11-26T09:45:35.021Z,7.30
2023-11-26T09:48:01.857Z,9.70
2023-11-26T09:50:29.924Z,9.13
2023-11-26T09:52:57.710Z,7.43
2023-11-26T09:55:24.649Z,8.38
2023-11-26T09:57:51.296Z,8.73
2023-11-26T10:00:18.390Z,8.20
2023-11-26T10:02:45.193Z,8.70
2023-11-26T10:05:23.096Z,8.30
2023-11-26T10:07:51.128Z,7.93
2023-11-26T10:10:17.757Z,8.93
2023-11-26T10:12:51.354Z,10.07
2023-11-26T10:15:18.072Z,11.23
2023-11-26T10:17:58.705Z,7.53
2023-11-26T10:20:25.379Z,26.55
2023-11-26T10:22:53.447Z,14.10
2023-11-26T10:25:20.281Z,15.93
2023-11-26T10:27:47.060Z,10.55
2023-11-26T10:30:23.608Z,27.75
2023-11-26T10:32:56.636Z,20.33
2023-11-26T10:35:23.678Z,15.57
2023-11-26T10:37:50.843Z,18.50
2023-11-26T10:40:18.958Z,16.17
2023-11-26T10:42:46.444Z,13.32
2023-11-26T10:45:13.237Z,13.80
2023-11-26T10:47:40.993Z,13.83
2023-11-26T10:50:10.126Z,9.18
2023-11-26T10:52:43.179Z,9.38
2023-11-26T10:55:15.057Z,10.43
2023-11-26T10:57:44.903Z,7.72
2023-11-26T11:00:18.590Z,8.73
2023-11-26T11:02:46.205Z,6.78
2023-11-26T11:05:13.633Z,8.02
2023-11-26T11:07:41.281Z,7.45
2023-11-26T11:10:21.663Z,6.88
2023-11-26T11:12:55.983Z,7.67
2023-11-26T11:15:24.765Z,8.02
2023-11-26T11:17:51.552Z,8.60
2023-11-26T11:20:18.365Z,9.95
2023-11-26T11:22:45.573Z,7.00
2023-11-26T11:25:14.351Z,7.00
2023-11-26T11:27:56.394Z,7.85
2023-11-26T11:30:53.207Z,8.77
2023-11-26T11:33:20.166Z,7.70
2023-11-26T11:35:46.857Z,7.22
2023-11-26T11:38:14.802Z,17.40
2023-11-26T11:41:01.022Z,10.32
2023-11-26T11:43:29.314Z,9.25
2023-11-26T11:45:56.025Z,8.00
2023-11-26T11:48:58.122Z,9.55
2023-11-26T11:51:35.144Z,9.30
2023-11-26T11:54:29.299Z,7.35
2023-11-26T11:57:00.198Z,9.57
2023-11-26T11:59:28.393Z,9.52
2023-11-26T12:01:57.564Z,9.32
2023-11-26T12:04:37.981Z,9.43
2023-11-26T12:07:04.780Z,10.98
2023-11-26T12:09:35.056Z,9.80
2023-11-26T12:12:01.685Z,11.50
2023-11-26T12:14:30.078Z,12.23
2023-11-26T12:16:56.866Z,12.47
2023-11-26T12:19:23.584Z,9.02
2023-11-26T12:21:50.404Z,11.40
2023-11-26T12:24:20.209Z,12.20
2023-11-26T12:26:48.140Z,11.30
2023-11-26T12:29:23.746Z,9.40
2023-11-26T12:31:51.878Z,14.18
2023-11-26T12:34:18.625Z,10.07
2023-11-26T12:36:45.378Z,13.10
2023-11-26T12:39:12.144Z,10.57
2023-11-26T12:41:38.857Z,12.13
2023-11-26T12:44:05.614Z,9.88
2023-11-26T12:46:32.330Z,13.38
2023-11-26T12:49:00.309Z,12.38
2023-11-26T12:51:27.047Z,16.60
2023-11-26T12:53:53.839Z,12.60
2023-11-26T12:56:21.305Z,11.38
2023-11-26T12:58:48.055Z,12.13
2023-11-26T13:01:24.531Z,12.75
2023-11-26T13:03:51.491Z,11.02
2023-11-26T13:06:19.887Z,10.70
2023-11-26T13:09:00.054Z,17.73
2023-11-26T13:11:26.683Z,16.83
2023-11-26T13:14:01.104Z,20.30
2023-11-26T13:16:27.698Z,17.27
2023-11-26T13:18:54.486Z,14.00
2023-11-26T13:21:22.682Z,18.02
2023-11-26T13:23:49.326Z,25.38
2023-11-26T13:26:16.155Z,13.90
2023-11-26T13:28:42.785Z,18.17
2023-11-26T13:31:09.415Z,19.27
2023-11-26T13:33:36.150Z,27.83
2023-11-26T13:36:03.081Z,19.98
2023-11-26T13:38:31.181Z,15.38
2023-11-26T13:40:58.050Z,13.30
2023-11-26T13:43:24.746Z,10.87
2023-11-26T13:45:51.703Z,15.05
2023-11-26T13:48:18.637Z,11.05
2023-11-26T13:50:46.081Z,13.38
2023-11-26T13:53:12.966Z,12.52
2023-11-26T13:55:41.004Z,16.87
2023-11-26T13:58:07.747Z,17.70
2023-11-26T14:00:34.638Z,21.20
2023-11-26T14:03:01.584Z,20.38
2023-11-26T14:05:28.697Z,13.30
2023-11-26T14:07:55.725Z,11.97
2023-11-26T14:10:23.850Z,10.32
2023-11-26T14:12:52.045Z,11.65
2023-11-26T14:15:18.738Z,13.50
2023-11-26T14:17:46.424Z,13.43
2023-11-26T14:20:14.118Z,15.80
2023-11-26T14:22:41.219Z,11.85
2023-11-26T14:25:08.412Z,12.20
2023-11-26T14:27:35.560Z,18.02
2023-11-26T14:30:04.379Z,18.30
2023-11-26T14:32:31.143Z,17.67
2023-11-26T14:34:57.880Z,11.40
2023-11-26T14:37:24.492Z,10.70
2023-11-26T14:39:51.441Z,14.57
2023-11-26T14:42:18.195Z,12.18
2023-11-26T14:44:44.811Z,14.00
2023-11-26T14:47:13.010Z,14.90
2023-11-26T14:49:39.668Z,10.48
2023-11-26T14:52:06.902Z,12.07
2023-11-26T14:54:33.667Z,9.93
2023-11-26T14:57:02.516Z,11.67
2023-11-26T14:59:29.414Z,13.57
2023-11-26T15:01:56.126Z,12.48
2023-11-26T15:04:24.344Z,17.45
2023-11-26T15:06:52.465Z,11.73
2023-11-26T15:09:19.124Z,15.47
2023-11-26T15:11:45.792Z,12.07
2023-11-26T15:14:12.683Z,14.02
2023-11-26T15:16:39.478Z,12.45
2023-11-26T15:19:06.179Z,10.15
2023-11-26T15:21:34.287Z,10.97
2023-11-26T15:24:01.006Z,13.55
2023-11-26T15:26:27.681Z,14.57
2023-11-26T15:28:54.372Z,9.80
2023-11-26T15:31:21.199Z,14.85
2023-11-26T15:33:48.367Z,13.20
2023-11-26T15:36:16.049Z,10.95
2023-11-26T15:38:44.065Z,11.18
2023-11-26T15:41:16.991Z,11.57
2023-11-26T15:43:43.673Z,14.27
2023-11-26T15:46:10.345Z,13.33
2023-11-26T15:48:38.952Z,13.23
2023-11-26T15:51:07.183Z,13.85
2023-11-26T15:53:33.833Z,13.45
2023-11-26T15:56:01.854Z,12.10
2023-11-26T15:58:28.516Z,11.03
2023-11-26T16:00:55.256Z,16.70
2023-11-26T16:03:22.068Z,13.35
2023-11-26T16:05:48.846Z,12.05
2023-11-26T16:08:15.497Z,17.95
2023-11-26T16:10:42.281Z,14.63
2023-11-26T16:13:10.272Z,13.52
2023-11-26T16:15:36.983Z,10.60
2023-11-26T16:18:03.961Z,13.43
2023-11-26T16:20:30.705Z,9.23
2023-11-26T16:22:57.306Z,14.67
2023-11-26T16:25:23.996Z,14.63
2023-11-26T16:27:50.746Z,12.73
2023-11-26T16:30:18.949Z,16.42
2023-11-26T16:32:45.758Z,12.80
2023-11-26T16:35:12.629Z,13.93
2023-11-26T16:37:39.313Z,15.45
2023-11-26T16:40:06.911Z,17.27
2023-11-26T16:42:33.636Z,16.13
2023-11-26T16:45:00.305Z,40.15
2023-11-26T16:47:28.508Z,44.13
2023-11-26T16:49:55.281Z,27.20
2023-11-26T16:52:21.964Z,18.63
2023-11-26T16:54:48.693Z,15.05
2023-11-26T16:57:15.724Z,16.17
2023-11-26T16:59:42.466Z,22.53
2023-11-26T17:02:09.355Z,18.40
2023-11-26T17:04:37.622Z,21.60
2023-11-26T17:07:04.665Z,18.27
2023-11-26T17:09:31.405Z,13.90
2023-11-26T17:11:58.166Z,22.53
2023-11-26T17:14:24.826Z,22.73
2023-11-26T17:16:51.655Z,20.13
2023-11-26T17:19:18.718Z,21.58
2023-11-26T17:21:46.992Z,15.57
2023-11-26T17:24:13.708Z,12.80
2023-11-26T17:26:40.389Z,13.23
2023-11-26T17:29:07.014Z,10.23
2023-11-26T17:31:33.688Z,11.70
2023-11-26T17:34:00.429Z,13.13
2023-11-26T17:36:27.091Z,13.13
2023-11-26T17:38:55.152Z,13.15
2023-11-26T17:41:21.780Z,11.00
2023-11-26T17:43:48.474Z,14.82
2023-11-26T17:46:15.415Z,14.43
2023-11-26T17:48:42.354Z,11.20
2023-11-26T17:51:09.334Z,12.82
2023-11-26T17:53:36.017Z,12.80
2023-11-26T17:56:04.508Z,12.45
2023-11-26T17:58:31.241Z,9.90
2023-11-26T18:00:58.112Z,12.20
2023-11-26T18:03:24.865Z,10.57
2023-11-26T18:05:51.556Z,10.40
2023-11-26T18:08:18.362Z,14.48
2023-11-26T18:10:45.044Z,9.27
2023-11-26T18:13:13.117Z,12.67
2023-11-26T18:15:39.830Z,12.88
2023-11-26T18:18:06.516Z,14.95
2023-11-26T18:20:33.166Z,15.02
2023-11-26T18:22:59.842Z,18.02
2023-11-26T18:25:26.492Z,13.20
2023-11-26T18:27:53.214Z,14.57
2023-11-26T18:30:21.232Z,15.75
2023-11-26T18:32:47.894Z,12.95
2023-11-26T18:35:14.660Z,15.80
2023-11-26T18:37:41.377Z,14.40
2023-11-26T18:40:09.000Z,13.57
2023-11-26T18:42:35.661Z,17.90
2023-11-26T18:45:02.356Z,15.98
2023-11-26T18:47:30.373Z,15.43
2023-11-26T18:49:57.121Z,13.53
2023-11-26T18:52:23.843Z,14.80
2023-11-26T18:54:50.606Z,19.08
2023-11-26T18:57:17.313Z,19.67
2023-11-26T18:59:43.912Z,16.58
2023-11-26T19:02:10.693Z,18.00
2023-11-26T19:04:39.384Z,15.27
2023-11-26T19:07:06.362Z,12.40
2023-11-26T19:09:33.119Z,11.40
2023-11-26T19:11:59.818Z,10.77
2023-11-26T19:14:26.511Z,11.10
2023-11-26T19:16:53.264Z,10.52
2023-11-26T19:19:20.232Z,13.48
2023-11-26T19:21:48.329Z,18.58
2023-11-26T19:24:15.009Z,15.02
2023-11-26T19:26:41.833Z,13.30
2023-11-26T19:29:08.515Z,15.68
2023-11-26T19:31:35.231Z,11.95
2023-11-26T19:34:01.965Z,12.23
2023-11-26T19:36:28.709Z,15.50
2023-11-26T19:38:56.766Z,17.70
2023-11-26T19:41:23.533Z,14.27
2023-11-26T19:43:50.580Z,13.35
2023-11-26T19:46:17.971Z,15.75
2023-11-26T19:48:45.990Z,15.05
2023-11-26T19:51:16.738Z,11.87
2023-11-26T19:53:45.157Z,9.15
2023-11-26T19:56:13.415Z,10.20
2023-11-26T19:58:40.089Z,11.65
2023-11-26T20:01:06.898Z,10.93
2023-11-26T20:03:33.725Z,10.97
2023-11-26T20:06:00.416Z,10.35
2023-11-26T20:08:27.094Z,10.02
2023-11-26T20:10:53.792Z,12.07
2023-11-26T20:13:21.819Z,10.88
2023-11-26T20:15:48.532Z,12.40
2023-11-26T20:18:15.854Z,12.55
2023-11-26T20:20:42.830Z,11.57
2023-11-26T20:23:10.006Z,11.80
2023-11-26T20:25:36.698Z,11.05
2023-11-26T20:28:03.458Z,10.47
2023-11-26T20:30:31.693Z,12.57
2023-11-26T20:32:58.891Z,11.82
2023-11-26T20:35:25.835Z,10.40
2023-11-26T20:37:52.660Z,12.43
2023-11-26T20:40:20.078Z,9.27
2023-11-26T20:42:46.753Z,9.35
2023-11-26T20:45:13.419Z,9.75
2023-11-26T20:47:41.532Z,10.57
2023-11-26T20:50:09.094Z,10.30
2023-11-26T20:52:35.761Z,13.27
2023-11-26T20:55:08.855Z,9.95
2023-11-26T20:57:35.532Z,11.52
2023-11-26T21:00:02.334Z,10.57
2023-11-26T21:02:29.068Z,11.70
2023-11-26T21:04:57.098Z,10.23
2023-11-26T21:07:23.816Z,12.02
2023-11-26T21:09:50.651Z,10.43
2023-11-26T21:12:18.656Z,9.75
2023-11-26T21:14:45.403Z,10.40
2023-11-26T21:17:12.140Z,9.63
2023-11-26T21:19:38.900Z,10.55
2023-11-26T21:22:06.922Z,12.30
2023-11-26T21:24:33.545Z,12.15
2023-11-26T21:27:00.177Z,11.32
2023-11-26T21:29:26.787Z,11.77
2023-11-26T21:31:53.531Z,11.77
2023-11-26T21:34:20.291Z,9.90
2023-11-26T21:36:47.201Z,10.40
2023-11-26T21:39:15.283Z,11.88
2023-11-26T21:41:42.388Z,9.23
2023-11-26T21:44:09.091Z,8.80
2023-11-26T21:46:41.412Z,10.85
2023-11-26T21:49:10.201Z,9.93
2023-11-26T21:51:37.766Z,8.15
2023-11-26T21:54:04.576Z,9.50
2023-11-26T21:56:32.657Z,11.05
2023-11-26T21:58:59.288Z,8.30
2023-11-26T22:01:26.025Z,9.75
2023-11-26T22:03:52.765Z,6.70
2023-11-26T22:06:19.630Z,9.23
2023-11-26T22:08:46.291Z,8.68
2023-11-26T22:11:17.869Z,9.30
2023-11-26T22:13:46.005Z,6.03
2023-11-26T22:16:14.863Z,6.57
2023-11-26T22:18:41.569Z,7.10
2023-11-26T22:21:14.471Z,7.85
2023-11-26T22:23:41.104Z,6.47
2023-11-26T22:26:08.464Z,8.48
2023-11-26T22:28:35.133Z,6.68
2023-11-26T22:31:03.412Z,8.30
2023-11-26T22:33:30.221Z,6.28
2023-11-26T22:35:56.901Z,7.90
2023-11-26T22:38:23.581Z,7.28
2023-11-26T22:40:50.416Z,7.88
2023-11-26T22:43:17.085Z,7.33
2023-11-26T22:45:43.980Z,5.35
2023-11-26T22:48:11.971Z,6.90
2023-11-26T22:50:47.767Z,6.43
2023-11-26T22:53:19.210Z,6.43
2023-11-26T22:55:45.861Z,6.63
2023-11-26T22:58:12.597Z,6.07
2023-11-26T23:00:39.500Z,5.65
2023-11-26T23:03:06.409Z,7.15
2023-11-26T23:05:34.543Z,6.85
2023-11-26T23:08:01.360Z,6.07
2023-11-26T23:10:28.016Z,5.82
2023-11-26T23:12:54.701Z,6.57
2023-11-26T23:15:21.405Z,8.25
2023-11-26T23:17:48.256Z,5.43
2023-11-26T23:20:15.366Z,5.50
2023-11-26T23:22:43.382Z,6.18
2023-11-26T23:25:10.099Z,6.47
2023-11-26T23:27:36.803Z,5.47
2023-11-26T23:30:04.792Z,6.60
2023-11-26T23:32:31.426Z,6.23
2023-11-26T23:34:58.049Z,6.75
2023-11-26T23:37:24.799Z,7.07
2023-11-26T23:39:52.824Z,6.35
2023-11-26T23:42:19.508Z,7.05
2023-11-26T23:44:46.194Z,6.93
2023-11-26T23:47:12.861Z,7.50
2023-11-26T23:49:39.584Z,5.85
2023-11-26T23:52:06.543Z,8.18
2023-11-26T23:54:33.241Z,6.07
2023-11-26T23:57:01.225Z,7.53
2023-11-26T23:59:28.634Z,7.20
